Fort Deposit, Alabama
Current Conditions -  °F | °C
As of 5:56 AM on Monday 22 Dec 2014 (Local Time) from KPRN Reporting Station
Haze Haze  
Wind Chill: 51°   Ceiling: 200
Heat Index: 51°   Visibility: 0.75mi
Dew Point: 50°   Wind: 7mph
Humidity: 96%   Direction: 100°E
Pressure: 29.94"   Gusts: NA
Location:  31.98°N, 86.58°W
Report Text: KPRN 221156Z AUTO 10006KT 3/4SM BR VV002 11/10 A2994 RMK AO2 SLP138 60001 70001 T01060100 10117 20106 50003
Loading
Personal Weather Stations






























Interactive Weather Map New forecast layout! Learn more

10-Day Weather Forecast

Advertisements
Track Severe Weather on mobile